createdAt,value
2018-03-20T00:00:34.027Z,0
2018-03-20T00:01:34.657Z,0
2018-03-20T00:02:35.262Z,0
2018-03-20T00:03:35.846Z,0
2018-03-20T00:04:36.449Z,0
2018-03-20T00:05:37.202Z,0
2018-03-20T00:06:37.876Z,0
2018-03-20T00:07:38.620Z,0
2018-03-20T00:08:39.319Z,0
2018-03-20T00:09:40.058Z,0
2018-03-20T00:10:40.794Z,0
2018-03-20T00:11:41.450Z,0
2018-03-20T00:12:42.046Z,0
2018-03-20T00:13:42.672Z,0
2018-03-20T00:14:43.317Z,0
2018-03-20T00:15:44.010Z,0
2018-03-20T00:16:44.697Z,0
2018-03-20T00:17:45.338Z,0
2018-03-20T00:18:46.024Z,0
2018-03-20T00:19:46.687Z,0
2018-03-20T00:20:47.421Z,0
2018-03-20T00:21:47.970Z,0
2018-03-20T00:22:48.686Z,0
2018-03-20T00:23:49.405Z,0
2018-03-20T00:24:50.017Z,0
2018-03-20T00:25:50.633Z,0
2018-03-20T00:26:51.319Z,0
2018-03-20T00:27:51.983Z,0
2018-03-20T00:28:52.724Z,0
2018-03-20T00:29:53.316Z,0
2018-03-20T00:30:54.023Z,0
2018-03-20T00:31:54.658Z,0
2018-03-20T00:32:55.428Z,0
2018-03-20T00:33:56.117Z,0
2018-03-20T00:34:56.747Z,0
2018-03-20T00:35:57.385Z,0
2018-03-20T00:36:58.034Z,0
2018-03-20T00:37:58.691Z,0
2018-03-20T00:38:59.439Z,0
2018-03-20T00:40:00.050Z,0
2018-03-20T00:41:00.749Z,0
2018-03-20T00:42:01.467Z,0
2018-03-20T00:43:02.067Z,0
2018-03-20T00:44:02.724Z,0
2018-03-20T00:45:03.428Z,0
2018-03-20T00:46:04.118Z,0
2018-03-20T00:47:04.928Z,0
2018-03-20T00:48:05.588Z,0
2018-03-20T00:49:06.217Z,0
2018-03-20T00:50:06.869Z,0
2018-03-20T00:51:07.462Z,0
2018-03-20T00:52:08.103Z,0
2018-03-20T00:53:08.660Z,0
2018-03-20T00:54:09.400Z,0
2018-03-20T00:55:10.020Z,0
2018-03-20T00:56:10.698Z,0
2018-03-20T00:57:11.399Z,0
2018-03-20T00:58:12.020Z,0
2018-03-20T00:59:12.734Z,0
2018-03-20T01:00:13.428Z,0
2018-03-20T01:01:14.045Z,0
2018-03-20T01:02:14.697Z,0
2018-03-20T01:03:15.247Z,0
2018-03-20T01:04:15.831Z,0
2018-03-20T01:05:16.427Z,0
2018-03-20T01:06:17.150Z,0
2018-03-20T01:07:17.789Z,0
2018-03-20T01:08:18.454Z,0
2018-03-20T01:09:19.086Z,0
2018-03-20T01:10:19.736Z,0
2018-03-20T01:11:20.431Z,0
2018-03-20T01:12:21.076Z,0
2018-03-20T01:13:21.721Z,0
2018-03-20T01:14:22.401Z,0
2018-03-20T01:15:23.079Z,0
2018-03-20T01:16:23.709Z,0
2018-03-20T01:17:24.332Z,0
2018-03-20T01:18:24.976Z,0
2018-03-20T01:19:25.649Z,0
2018-03-20T01:20:26.162Z,0
2018-03-20T01:21:26.807Z,0
2018-03-20T01:22:27.495Z,0
2018-03-20T01:23:28.119Z,0
2018-03-20T01:24:28.762Z,0
2018-03-20T01:25:29.452Z,0
2018-03-20T01:26:30.037Z,0
2018-03-20T01:27:30.750Z,0
2018-03-20T01:28:31.406Z,0
2018-03-20T01:29:32.045Z,0
2018-03-20T01:30:32.703Z,0
2018-03-20T01:31:33.409Z,0
2018-03-20T01:32:33.995Z,0
2018-03-20T01:33:34.655Z,0
2018-03-20T01:34:35.283Z,0
2018-03-20T01:35:35.844Z,0
2018-03-20T01:36:36.545Z,0
2018-03-20T01:37:37.201Z,0
2018-03-20T01:38:38.097Z,0
2018-03-20T01:39:38.742Z,0
2018-03-20T01:40:39.413Z,0
2018-03-20T01:41:40.186Z,0
2018-03-20T01:42:40.848Z,0
2018-03-20T01:43:41.511Z,0
2018-03-20T01:44:42.135Z,0
2018-03-20T01:45:42.792Z,0
2018-03-20T01:46:43.454Z,0
2018-03-20T01:47:44.220Z,0
2018-03-20T01:48:44.842Z,0
2018-03-20T01:49:45.436Z,0
2018-03-20T01:50:46.049Z,0
2018-03-20T01:51:46.654Z,0
2018-03-20T01:52:47.327Z,0
2018-03-20T01:53:47.959Z,0
2018-03-20T01:54:48.568Z,0
2018-03-20T01:55:49.185Z,0
2018-03-20T01:56:49.852Z,0
2018-03-20T01:57:50.552Z,0
2018-03-20T01:58:51.174Z,0
2018-03-20T01:59:51.832Z,0
2018-03-20T02:00:52.491Z,0
2018-03-20T02:01:53.130Z,0
2018-03-20T02:02:53.809Z,0
2018-03-20T02:03:54.417Z,0
2018-03-20T02:04:55.097Z,0
2018-03-20T02:05:55.663Z,0
2018-03-20T02:06:56.321Z,0
2018-03-20T02:07:56.928Z,0
2018-03-20T02:08:57.581Z,0
2018-03-20T02:09:58.247Z,0
2018-03-20T02:10:58.932Z,0
2018-03-20T02:11:59.560Z,0
2018-03-20T02:13:00.160Z,0
2018-03-20T02:14:00.760Z,0
2018-03-20T02:15:01.348Z,0
2018-03-20T02:16:01.948Z,0
2018-03-20T02:17:02.552Z,0
2018-03-20T02:18:03.170Z,0
2018-03-20T02:19:03.744Z,0
2018-03-20T02:20:04.342Z,0
2018-03-20T02:21:04.938Z,0
2018-03-20T02:22:05.536Z,0
2018-03-20T02:23:06.121Z,0
2018-03-20T02:24:06.718Z,0
2018-03-20T02:25:07.322Z,0
2018-03-20T02:26:07.922Z,0
2018-03-20T02:27:08.508Z,0
2018-03-20T02:28:09.104Z,0
2018-03-20T02:29:09.690Z,0
2018-03-20T02:30:10.312Z,0
2018-03-20T02:31:10.884Z,0
2018-03-20T02:32:11.476Z,0
2018-03-20T02:33:12.092Z,0
2018-03-20T02:34:12.669Z,0
2018-03-20T02:35:13.247Z,0
2018-03-20T02:36:13.838Z,0
2018-03-20T02:37:14.439Z,0
2018-03-20T02:38:15.031Z,0
2018-03-20T02:39:15.638Z,0
2018-03-20T02:40:16.243Z,0
2018-03-20T02:41:16.869Z,0
2018-03-20T02:42:17.446Z,0
2018-03-20T02:43:18.049Z,0
2018-03-20T02:44:18.654Z,0
2018-03-20T02:45:19.249Z,0
2018-03-20T02:46:19.853Z,0
2018-03-20T02:47:20.443Z,0
2018-03-20T02:48:21.058Z,0
2018-03-20T02:49:21.641Z,0
2018-03-20T02:50:22.239Z,0
2018-03-20T02:51:22.833Z,0
2018-03-20T02:52:23.434Z,0
2018-03-20T02:53:24.022Z,0
2018-03-20T02:54:24.625Z,0
2018-03-20T02:55:25.218Z,0
2018-03-20T02:56:25.822Z,0
2018-03-20T02:57:26.418Z,0
2018-03-20T02:58:27.018Z,0
2018-03-20T02:59:27.608Z,0
2018-03-20T03:00:28.197Z,0
2018-03-20T03:01:28.794Z,0
2018-03-20T03:02:29.380Z,0
2018-03-20T03:03:29.986Z,0
2018-03-20T03:04:30.568Z,0
2018-03-20T03:05:31.171Z,0
2018-03-20T03:06:31.765Z,0
2018-03-20T03:07:32.361Z,0
2018-03-20T03:08:32.955Z,0
2018-03-20T03:09:33.574Z,0
2018-03-20T03:10:34.150Z,0
2018-03-20T03:11:34.751Z,0
2018-03-20T03:12:35.342Z,0
2018-03-20T03:13:35.932Z,0
2018-03-20T03:14:36.524Z,0
2018-03-20T03:15:37.122Z,0
2018-03-20T03:16:37.743Z,0
2018-03-20T03:17:38.320Z,0
2018-03-20T03:18:38.917Z,0
2018-03-20T03:19:39.510Z,0
2018-03-20T03:20:40.097Z,0
2018-03-20T03:21:40.695Z,0
2018-03-20T03:22:41.288Z,0
2018-03-20T03:23:41.902Z,0
2018-03-20T03:24:42.494Z,0
2018-03-20T03:25:43.076Z,0
2018-03-20T03:26:43.669Z,0
2018-03-20T03:27:44.259Z,0
2018-03-20T03:28:44.892Z,0
2018-03-20T03:29:45.449Z,0
2018-03-20T03:30:46.061Z,0
2018-03-20T03:31:46.640Z,0
2018-03-20T03:32:47.237Z,0
2018-03-20T03:33:47.808Z,0
2018-03-20T03:34:48.410Z,0
2018-03-20T03:35:49.002Z,0
2018-03-20T03:36:49.588Z,0
2018-03-20T03:37:50.189Z,0
2018-03-20T03:38:50.779Z,0
2018-03-20T03:39:51.377Z,0
2018-03-20T03:40:51.975Z,0
2018-03-20T03:41:52.582Z,0
2018-03-20T03:42:53.169Z,0
2018-03-20T03:43:53.758Z,0
2018-03-20T03:44:54.352Z,0
2018-03-20T03:45:54.941Z,0
2018-03-20T03:46:55.523Z,0
2018-03-20T03:47:56.113Z,0
2018-03-20T03:48:56.705Z,0
2018-03-20T03:49:57.299Z,0
2018-03-20T03:50:57.891Z,0
2018-03-20T03:51:58.500Z,0
2018-03-20T03:52:59.106Z,0
2018-03-20T03:53:59.673Z,0
2018-03-20T03:55:00.259Z,0
2018-03-20T03:56:00.854Z,0
2018-03-20T03:57:01.454Z,0
2018-03-20T03:58:02.053Z,0
2018-03-20T03:59:02.657Z,0
2018-03-20T04:00:03.252Z,0
2018-03-20T04:01:03.862Z,0
2018-03-20T04:02:04.459Z,0
2018-03-20T04:03:05.056Z,0
2018-03-20T04:04:05.662Z,0
2018-03-20T04:05:06.264Z,0
2018-03-20T04:06:06.871Z,0
2018-03-20T04:07:07.446Z,0
2018-03-20T04:08:08.036Z,0
2018-03-20T04:09:08.631Z,0
2018-03-20T04:10:09.218Z,0
2018-03-20T04:11:09.820Z,0
2018-03-20T04:12:10.408Z,0
2018-03-20T04:13:11.000Z,0
2018-03-20T04:14:11.608Z,0
2018-03-20T04:15:12.199Z,0
2018-03-20T04:16:12.798Z,0
2018-03-20T04:17:13.407Z,0
2018-03-20T04:18:14.000Z,0
2018-03-20T04:19:14.572Z,0
2018-03-20T04:20:15.164Z,0
2018-03-20T04:21:15.758Z,0
2018-03-20T04:22:16.356Z,0
2018-03-20T04:23:16.949Z,0
2018-03-20T04:24:17.537Z,0
2018-03-20T04:25:18.135Z,0
2018-03-20T04:26:18.735Z,0
2018-03-20T04:27:19.334Z,0
2018-03-20T04:28:19.954Z,0
2018-03-20T04:29:20.524Z,0
2018-03-20T04:30:21.113Z,0
2018-03-20T04:31:21.713Z,0
2018-03-20T04:32:22.310Z,0
2018-03-20T04:33:22.907Z,0
2018-03-20T04:34:23.503Z,0
2018-03-20T04:35:24.112Z,0
2018-03-20T04:36:24.683Z,0
2018-03-20T04:37:25.292Z,0
2018-03-20T04:38:25.893Z,0
2018-03-20T04:39:26.495Z,0
2018-03-20T04:40:27.095Z,0
2018-03-20T04:41:27.687Z,0
2018-03-20T04:42:28.281Z,0
2018-03-20T04:43:28.905Z,0
2018-03-20T04:44:29.479Z,0
2018-03-20T04:45:30.086Z,0
2018-03-20T04:46:30.678Z,0
2018-03-20T04:47:31.264Z,0
2018-03-20T04:48:31.845Z,0
2018-03-20T04:49:32.450Z,0
2018-03-20T04:50:33.045Z,0
2018-03-20T04:51:33.644Z,0
2018-03-20T04:52:34.243Z,0
2018-03-20T04:53:34.828Z,0
2018-03-20T04:54:35.424Z,0
2018-03-20T04:55:36.008Z,0
2018-03-20T04:56:36.618Z,0
2018-03-20T04:57:37.207Z,0
2018-03-20T04:58:37.825Z,0
2018-03-20T04:59:38.405Z,0
2018-03-20T05:00:39.000Z,0
2018-03-20T05:01:39.589Z,0
2018-03-20T05:02:40.241Z,0
2018-03-20T05:03:40.795Z,0
2018-03-20T05:04:41.400Z,0
2018-03-20T05:05:41.988Z,0
2018-03-20T05:06:42.589Z,0
2018-03-20T05:07:43.176Z,0
2018-03-20T05:08:43.776Z,0
2018-03-20T05:09:44.377Z,0
2018-03-20T05:10:44.983Z,0
2018-03-20T05:11:45.597Z,0
2018-03-20T05:12:46.184Z,0
2018-03-20T05:13:46.767Z,0
2018-03-20T05:14:47.368Z,0
2018-03-20T05:15:47.966Z,0
2018-03-20T05:16:48.557Z,0
2018-03-20T05:17:49.165Z,0
2018-03-20T05:18:49.765Z,0
2018-03-20T05:19:50.356Z,0
2018-03-20T05:20:50.964Z,0
2018-03-20T05:21:51.585Z,0
2018-03-20T05:22:52.155Z,0
2018-03-20T05:23:52.768Z,0
2018-03-20T05:24:53.353Z,0
2018-03-20T05:25:53.955Z,0
2018-03-20T05:26:54.557Z,0
2018-03-20T05:27:55.159Z,0
2018-03-20T05:28:55.793Z,0
2018-03-20T05:29:56.349Z,0
2018-03-20T05:30:56.949Z,0
2018-03-20T05:31:57.558Z,0
2018-03-20T05:32:58.139Z,0
2018-03-20T05:33:58.733Z,0
2018-03-20T05:34:59.338Z,0
2018-03-20T05:35:59.928Z,0
2018-03-20T05:37:00.533Z,0
2018-03-20T05:38:01.143Z,0
2018-03-20T05:39:01.741Z,0
2018-03-20T05:40:02.340Z,0
2018-03-20T05:41:02.941Z,0
2018-03-20T05:42:03.544Z,0
2018-03-20T05:43:04.157Z,5
2018-03-20T05:44:04.753Z,5
2018-03-20T05:45:05.350Z,5
2018-03-20T05:46:05.954Z,5
2018-03-20T05:47:06.543Z,5
2018-03-20T05:48:07.147Z,5
2018-03-20T05:49:07.754Z,5
2018-03-20T05:50:08.356Z,5
2018-03-20T05:51:08.967Z,5
2018-03-20T05:52:09.550Z,5
2018-03-20T05:53:10.151Z,5
2018-03-20T05:54:10.735Z,10
2018-03-20T05:55:11.325Z,10
2018-03-20T05:56:11.929Z,10
2018-03-20T05:57:12.530Z,10
2018-03-20T05:58:13.144Z,10
2018-03-20T05:59:13.742Z,10
2018-03-20T06:00:14.344Z,10
2018-03-20T06:01:14.953Z,15
2018-03-20T06:02:15.560Z,15
2018-03-20T06:03:16.146Z,15
2018-03-20T06:04:16.745Z,15
2018-03-20T06:05:17.348Z,20
2018-03-20T06:06:18.024Z,20
2018-03-20T06:07:18.557Z,20
2018-03-20T06:08:19.159Z,20
2018-03-20T06:09:19.761Z,20
2018-03-20T06:10:20.368Z,25
2018-03-20T06:11:20.991Z,30
2018-03-20T06:12:21.649Z,30
2018-03-20T06:13:22.196Z,30
2018-03-20T06:14:22.848Z,30
2018-03-20T06:15:23.499Z,30
2018-03-20T06:16:24.071Z,30
2018-03-20T06:17:24.662Z,30
2018-03-20T06:18:25.259Z,35
2018-03-20T06:19:25.868Z,40
2018-03-20T06:20:26.474Z,45
2018-03-20T06:21:27.061Z,50
2018-03-20T06:22:27.645Z,50
2018-03-20T06:23:28.247Z,50
2018-03-20T06:24:28.852Z,45
2018-03-20T06:25:29.452Z,40
2018-03-20T06:26:30.044Z,45
2018-03-20T06:27:30.637Z,45
2018-03-20T06:28:31.240Z,40
2018-03-20T06:29:31.831Z,40
2018-03-20T06:30:32.460Z,35
2018-03-20T06:31:33.047Z,35
2018-03-20T06:32:33.645Z,45
2018-03-20T06:33:34.247Z,50
2018-03-20T06:34:34.855Z,50
2018-03-20T06:35:35.442Z,55
2018-03-20T06:36:36.044Z,60
2018-03-20T06:37:36.650Z,60
2018-03-20T06:38:37.257Z,65
2018-03-20T06:39:37.861Z,70
2018-03-20T06:40:38.472Z,80
2018-03-20T06:41:39.069Z,90
2018-03-20T06:42:39.665Z,90
2018-03-20T06:43:40.384Z,90
2018-03-20T06:44:40.935Z,95
2018-03-20T06:45:41.532Z,85
2018-03-20T06:46:42.139Z,80
2018-03-20T06:47:42.737Z,85
2018-03-20T06:48:43.328Z,90
2018-03-20T06:49:43.925Z,100
2018-03-20T06:50:44.536Z,105
2018-03-20T06:51:45.117Z,100
2018-03-20T06:52:45.713Z,90
2018-03-20T06:53:46.338Z,75
2018-03-20T06:54:46.906Z,80
2018-03-20T06:55:47.632Z,80
2018-03-20T06:56:48.323Z,85
2018-03-20T06:57:49.082Z,75
2018-03-20T06:58:49.742Z,70
2018-03-20T06:59:50.404Z,70
2018-03-20T07:00:51.194Z,70
2018-03-20T07:01:52.760Z,75
2018-03-20T07:02:53.428Z,80
2018-03-20T07:03:54.105Z,85
2018-03-20T07:04:54.750Z,90
2018-03-20T07:05:55.321Z,100
2018-03-20T07:06:56.027Z,120
2018-03-20T07:07:56.695Z,120
2018-03-20T07:08:57.370Z,120
2018-03-20T07:09:58.035Z,120
2018-03-20T07:10:58.720Z,95
2018-03-20T07:11:59.343Z,85
2018-03-20T07:13:00.007Z,85
2018-03-20T07:14:00.676Z,85
2018-03-20T07:15:01.363Z,70
2018-03-20T07:16:02.036Z,70
2018-03-20T07:17:02.666Z,65
2018-03-20T07:18:03.359Z,65
2018-03-20T07:19:03.975Z,70
2018-03-20T07:20:04.599Z,85
2018-03-20T07:21:05.180Z,95
2018-03-20T07:22:05.895Z,105
2018-03-20T07:23:06.613Z,115
2018-03-20T07:24:07.227Z,130
2018-03-20T07:25:07.919Z,155
2018-03-20T07:26:08.567Z,155
2018-03-20T07:27:09.170Z,150
2018-03-20T07:28:09.859Z,165
2018-03-20T07:29:10.524Z,195
2018-03-20T07:30:11.194Z,225
2018-03-20T07:31:11.855Z,190
2018-03-20T07:32:12.536Z,185
2018-03-20T07:33:13.156Z,210
2018-03-20T07:34:13.875Z,210
2018-03-20T07:35:14.514Z,215
2018-03-20T07:36:15.174Z,235
2018-03-20T07:37:15.760Z,245
2018-03-20T07:38:16.442Z,260
2018-03-20T07:39:17.126Z,265
2018-03-20T07:40:17.814Z,260
2018-03-20T07:41:18.480Z,260
2018-03-20T07:42:19.099Z,245
2018-03-20T07:43:19.686Z,245
2018-03-20T07:44:20.454Z,270
2018-03-20T07:45:21.164Z,290
2018-03-20T07:46:21.861Z,305
2018-03-20T07:47:22.554Z,270
2018-03-20T07:48:23.274Z,255
2018-03-20T07:49:23.861Z,295
2018-03-20T07:50:24.523Z,320
2018-03-20T07:51:25.256Z,310
2018-03-20T07:52:25.925Z,305
2018-03-20T07:53:26.517Z,335
2018-03-20T07:54:27.219Z,325
2018-03-20T07:55:27.885Z,325
2018-03-20T07:56:28.594Z,330
2018-03-20T07:57:29.247Z,335
2018-03-20T07:58:29.935Z,355
2018-03-20T07:59:30.588Z,345
2018-03-20T08:00:31.290Z,355
2018-03-20T08:01:31.954Z,385
2018-03-20T08:02:32.626Z,365
2018-03-20T08:03:33.296Z,410
2018-03-20T08:04:34.005Z,500
2018-03-20T08:05:34.663Z,375
2018-03-20T08:06:35.334Z,320
2018-03-20T08:07:35.999Z,365
2018-03-20T08:08:36.580Z,365
2018-03-20T08:09:37.298Z,300
2018-03-20T08:10:37.878Z,375
2018-03-20T08:11:38.584Z,425
2018-03-20T08:12:39.270Z,395
2018-03-20T08:13:39.975Z,365
2018-03-20T08:14:40.664Z,370
2018-03-20T08:15:41.304Z,385
2018-03-20T08:16:41.998Z,445
2018-03-20T08:17:42.658Z,505
2018-03-20T08:18:43.361Z,555
2018-03-20T08:19:44.291Z,615
2018-03-20T08:20:44.934Z,595
2018-03-20T08:21:45.503Z,600
2018-03-20T08:22:46.209Z,675
2018-03-20T08:23:46.869Z,630
2018-03-20T08:24:47.465Z,615
2018-03-20T08:25:48.122Z,670
2018-03-20T08:26:48.813Z,600
2018-03-20T08:27:49.476Z,595
2018-03-20T08:28:50.096Z,625
2018-03-20T08:29:50.704Z,600
2018-03-20T08:30:51.405Z,510
2018-03-20T08:31:52.066Z,465
2018-03-20T08:32:52.695Z,440
2018-03-20T08:33:53.389Z,425
2018-03-20T08:34:54.109Z,465
2018-03-20T08:35:54.795Z,390
2018-03-20T08:36:55.469Z,440
2018-03-20T08:37:56.060Z,515
2018-03-20T08:38:56.769Z,515
2018-03-20T08:39:57.446Z,550
2018-03-20T08:40:58.039Z,595
2018-03-20T08:41:58.637Z,480
2018-03-20T08:42:59.302Z,615
2018-03-20T08:43:59.991Z,665
2018-03-20T08:45:00.615Z,1055
2018-03-20T08:46:01.244Z,905
2018-03-20T08:47:01.806Z,660
2018-03-20T08:48:02.542Z,835
2018-03-20T08:49:03.183Z,995
2018-03-20T08:50:03.794Z,1285
2018-03-20T08:51:04.490Z,700
2018-03-20T08:52:05.187Z,735
2018-03-20T08:53:05.878Z,1320
2018-03-20T08:54:06.483Z,1275
2018-03-20T08:55:07.175Z,1435
2018-03-20T08:56:07.869Z,1580
2018-03-20T08:57:08.513Z,965
2018-03-20T08:58:09.280Z,845
2018-03-20T08:59:09.849Z,1380
2018-03-20T09:00:10.598Z,730
2018-03-20T09:01:11.236Z,1130
2018-03-20T09:02:11.873Z,1280
2018-03-20T09:03:12.537Z,1400
2018-03-20T09:04:13.232Z,1365
2018-03-20T09:05:13.918Z,1380
2018-03-20T09:06:14.547Z,1540
2018-03-20T09:07:15.249Z,1545
2018-03-20T09:08:15.879Z,1015
2018-03-20T09:09:16.568Z,1150
2018-03-20T09:10:17.243Z,1010
2018-03-20T09:11:17.895Z,905
2018-03-20T09:12:18.602Z,1095
2018-03-20T09:13:19.281Z,1460
2018-03-20T09:14:20.058Z,1125
2018-03-20T09:15:20.729Z,960
2018-03-20T09:16:21.798Z,705
2018-03-20T09:17:22.540Z,635
2018-03-20T09:18:23.452Z,565
2018-03-20T09:19:24.144Z,610
2018-03-20T09:20:24.817Z,610
2018-03-20T09:21:25.492Z,480
2018-03-20T09:22:26.155Z,405
2018-03-20T09:23:26.817Z,315
2018-03-20T09:24:27.745Z,280
2018-03-20T09:25:28.378Z,295
2018-03-20T09:26:29.056Z,475
2018-03-20T09:27:29.824Z,565
2018-03-20T09:28:30.551Z,630
2018-03-20T09:29:31.317Z,640
2018-03-20T09:30:32.005Z,650
2018-03-20T09:31:32.587Z,740
2018-03-20T09:32:33.319Z,615
2018-03-20T09:33:33.960Z,650
2018-03-20T09:34:34.662Z,775
2018-03-20T09:35:35.292Z,740
2018-03-20T09:36:35.963Z,760
2018-03-20T09:37:36.632Z,1385
2018-03-20T09:38:37.260Z,2260
2018-03-20T09:39:37.887Z,1695
2018-03-20T09:40:38.529Z,865
2018-03-20T09:41:39.202Z,1485
2018-03-20T09:42:39.872Z,790
2018-03-20T09:43:40.577Z,700
2018-03-20T09:44:41.423Z,750
2018-03-20T09:45:42.162Z,695
2018-03-20T09:46:42.817Z,645
2018-03-20T09:47:43.469Z,1435
2018-03-20T09:48:44.141Z,1260
2018-03-20T09:49:44.783Z,2400
2018-03-20T09:50:45.387Z,885
2018-03-20T09:51:45.989Z,775
2018-03-20T09:52:46.700Z,770
2018-03-20T09:53:47.331Z,890
2018-03-20T09:54:48.027Z,1075
2018-03-20T09:55:48.659Z,1110
2018-03-20T09:56:49.298Z,980
2018-03-20T09:57:49.989Z,1070
2018-03-20T09:58:50.625Z,2485
2018-03-20T09:59:51.396Z,745
2018-03-20T10:00:52.097Z,835
2018-03-20T10:01:52.767Z,925
2018-03-20T10:02:53.442Z,1225
2018-03-20T10:03:54.066Z,950
2018-03-20T10:04:54.729Z,780
2018-03-20T10:05:55.398Z,2035
2018-03-20T10:06:56.033Z,2205
2018-03-20T10:07:56.658Z,2235
2018-03-20T10:08:57.280Z,2275
2018-03-20T10:09:57.923Z,2285
2018-03-20T10:10:58.632Z,2295
2018-03-20T10:11:59.337Z,2360
2018-03-20T10:13:00.036Z,2415
2018-03-20T10:14:00.703Z,2385
2018-03-20T10:15:01.378Z,2310
2018-03-20T10:16:02.019Z,2415
2018-03-20T10:17:02.736Z,2505
2018-03-20T10:18:03.406Z,1440
2018-03-20T10:19:04.061Z,1075
2018-03-20T10:20:04.777Z,705
2018-03-20T10:21:05.436Z,895
2018-03-20T10:22:06.059Z,725
2018-03-20T10:23:06.750Z,2425
2018-03-20T10:24:07.438Z,2215
2018-03-20T10:25:08.091Z,2370
2018-03-20T10:26:08.759Z,2335
2018-03-20T10:27:09.434Z,580
2018-03-20T10:28:10.085Z,2540
2018-03-20T10:29:10.704Z,2500
2018-03-20T10:30:11.331Z,2460
2018-03-20T10:31:11.926Z,735
2018-03-20T10:32:12.603Z,860
2018-03-20T10:33:13.284Z,2445
2018-03-20T10:34:14.000Z,2335
2018-03-20T10:35:14.883Z,2300
2018-03-20T10:36:15.527Z,2220
2018-03-20T10:37:16.153Z,2170
2018-03-20T10:38:16.820Z,2175
2018-03-20T10:39:17.463Z,2275
2018-03-20T10:40:18.145Z,2245
2018-03-20T10:41:18.766Z,2240
2018-03-20T10:42:19.734Z,2190
2018-03-20T10:43:20.671Z,2280
2018-03-20T10:44:21.372Z,2295
2018-03-20T10:45:22.043Z,2295
2018-03-20T10:46:22.693Z,1065
2018-03-20T10:47:23.361Z,695
2018-03-20T10:48:23.964Z,2355
2018-03-20T10:49:24.659Z,2255
2018-03-20T10:50:25.529Z,655
2018-03-20T10:51:26.201Z,530
2018-03-20T10:52:26.896Z,2370
2018-03-20T10:53:27.541Z,2340
2018-03-20T10:54:28.222Z,2340
2018-03-20T10:55:28.896Z,2090
2018-03-20T10:56:29.543Z,2260
2018-03-20T10:57:30.189Z,2035
2018-03-20T10:58:30.876Z,2280
2018-03-20T10:59:31.533Z,2350
2018-03-20T11:00:32.221Z,2310
2018-03-20T11:01:32.978Z,2305
2018-03-20T11:02:33.471Z,2285
2018-03-20T11:03:34.160Z,2265
2018-03-20T11:04:34.842Z,2260
2018-03-20T11:05:35.496Z,2280
2018-03-20T11:06:36.164Z,2280
2018-03-20T11:07:36.721Z,2315
2018-03-20T11:08:37.442Z,2370
2018-03-20T11:09:38.107Z,2360
2018-03-20T11:10:38.818Z,2380
2018-03-20T11:11:39.459Z,2380
2018-03-20T11:12:40.167Z,2410
2018-03-20T11:13:40.843Z,2400
2018-03-20T11:14:41.493Z,2385
2018-03-20T11:15:42.145Z,2390
2018-03-20T11:16:42.828Z,2480
2018-03-20T11:17:43.700Z,2500
2018-03-20T11:18:44.412Z,700
2018-03-20T11:19:45.091Z,1610
2018-03-20T11:20:45.749Z,2325
2018-03-20T11:21:46.396Z,2365
2018-03-20T11:22:47.092Z,560
2018-03-20T11:23:47.732Z,2420
2018-03-20T11:24:48.410Z,1320
2018-03-20T11:25:49.077Z,2555
2018-03-20T11:26:49.691Z,2535
2018-03-20T11:27:50.390Z,2520
2018-03-20T11:28:51.243Z,2515
2018-03-20T11:29:52.243Z,2515
2018-03-20T11:30:52.904Z,2540
2018-03-20T11:31:53.530Z,2565
2018-03-20T11:32:54.190Z,2610
2018-03-20T11:33:54.869Z,2660
2018-03-20T11:34:55.551Z,2720
2018-03-20T11:35:56.221Z,2740
2018-03-20T11:36:56.885Z,2735
2018-03-20T11:37:57.631Z,2715
2018-03-20T11:38:58.333Z,2700
2018-03-20T11:39:59.004Z,2650
2018-03-20T11:40:59.616Z,2675
2018-03-20T11:42:00.366Z,2660
2018-03-20T11:43:01.035Z,2710
2018-03-20T11:44:01.724Z,2720
2018-03-20T11:45:02.552Z,2780
2018-03-20T11:46:03.251Z,2800
2018-03-20T11:47:03.845Z,2820
2018-03-20T11:48:04.541Z,2815
2018-03-20T11:49:05.219Z,2815
2018-03-20T11:50:05.883Z,2815
2018-03-20T11:51:06.503Z,2830
2018-03-20T11:52:07.146Z,2790
2018-03-20T11:53:07.897Z,2760
2018-03-20T11:54:08.629Z,2745
2018-03-20T11:55:09.246Z,2775
2018-03-20T11:56:09.837Z,2795
2018-03-20T11:57:10.512Z,2775
2018-03-20T11:58:11.164Z,2765
2018-03-20T11:59:11.836Z,2790
2018-03-20T12:00:12.689Z,2795
2018-03-20T12:01:13.334Z,2820
2018-03-20T12:02:13.945Z,2775
2018-03-20T12:03:14.674Z,2725
2018-03-20T12:04:15.313Z,2730
2018-03-20T12:05:16.077Z,2745
2018-03-20T12:06:16.764Z,2735
2018-03-20T12:07:17.527Z,2740
2018-03-20T12:08:18.239Z,2760
2018-03-20T12:09:18.867Z,2825
2018-03-20T12:10:19.553Z,2870
2018-03-20T12:11:20.230Z,2830
2018-03-20T12:12:20.914Z,2800
2018-03-20T12:13:21.590Z,2820
2018-03-20T12:14:22.232Z,2835
2018-03-20T12:15:22.923Z,2835
2018-03-20T12:16:23.605Z,2795
2018-03-20T12:17:24.340Z,2780
2018-03-20T12:18:24.991Z,2795
2018-03-20T12:19:25.625Z,2800
2018-03-20T12:20:26.296Z,2800
2018-03-20T12:21:26.940Z,2780
2018-03-20T12:22:27.582Z,2770
2018-03-20T12:23:28.252Z,2800
2018-03-20T12:24:28.910Z,2815
2018-03-20T12:25:29.565Z,2810
2018-03-20T12:26:30.238Z,2790
2018-03-20T12:27:30.942Z,2780
2018-03-20T12:28:31.602Z,2765
2018-03-20T12:29:32.299Z,2780
2018-03-20T12:30:32.911Z,2215
2018-03-20T12:31:33.629Z,2795
2018-03-20T12:32:34.281Z,2730
2018-03-20T12:33:35.223Z,2730
2018-03-20T12:34:35.991Z,2715
2018-03-20T12:35:36.652Z,2695
2018-03-20T12:36:37.360Z,2655
2018-03-20T12:37:38.076Z,2690
2018-03-20T12:38:38.732Z,2695
2018-03-20T12:39:39.398Z,2665
2018-03-20T12:40:40.041Z,2625
2018-03-20T12:41:40.768Z,2605
2018-03-20T12:42:41.453Z,2625
2018-03-20T12:43:42.049Z,2670
2018-03-20T12:44:42.664Z,2660
2018-03-20T12:45:43.364Z,2430
2018-03-20T12:46:44.026Z,615
2018-03-20T12:47:44.597Z,2640
2018-03-20T12:48:45.207Z,2625
2018-03-20T12:49:45.826Z,2575
2018-03-20T12:50:46.475Z,2535
2018-03-20T12:51:47.066Z,2500
2018-03-20T12:52:47.694Z,2500
2018-03-20T12:53:48.310Z,2480
2018-03-20T12:54:48.922Z,2430
2018-03-20T12:55:49.530Z,2390
2018-03-20T12:56:50.146Z,2375
2018-03-20T12:57:50.776Z,2380
2018-03-20T12:58:51.394Z,2425
2018-03-20T12:59:52.082Z,2425
2018-03-20T13:00:52.653Z,2425
2018-03-20T13:01:53.255Z,2245
2018-03-20T13:02:53.855Z,2360
2018-03-20T13:03:54.475Z,2340
2018-03-20T13:04:55.087Z,2310
2018-03-20T13:05:55.694Z,2305
2018-03-20T13:06:56.305Z,2320
2018-03-20T13:07:56.939Z,2325
2018-03-20T13:08:57.549Z,2320
2018-03-20T13:09:58.162Z,2310
2018-03-20T13:10:58.816Z,2295
2018-03-20T13:11:59.427Z,2310
2018-03-20T13:13:00.051Z,2315
2018-03-20T13:14:00.662Z,2310
2018-03-20T13:15:01.294Z,2280
2018-03-20T13:16:01.895Z,2265
2018-03-20T13:17:02.527Z,2240
2018-03-20T13:18:03.149Z,2215
2018-03-20T13:19:03.765Z,2195
2018-03-20T13:20:04.380Z,2175
2018-03-20T13:21:04.998Z,2185
2018-03-20T13:22:05.634Z,2210
2018-03-20T13:23:06.277Z,2210
2018-03-20T13:24:06.853Z,2215
2018-03-20T13:25:07.485Z,2225
2018-03-20T13:26:08.107Z,2210
2018-03-20T13:27:08.725Z,2190
2018-03-20T13:28:09.380Z,2160
2018-03-20T13:29:09.972Z,2140
2018-03-20T13:30:10.588Z,2120
2018-03-20T13:31:11.246Z,2110
2018-03-20T13:32:11.848Z,2075
2018-03-20T13:33:12.478Z,2065
2018-03-20T13:34:13.088Z,2050
2018-03-20T13:35:13.712Z,2050
2018-03-20T13:36:14.330Z,2030
2018-03-20T13:37:14.950Z,2010
2018-03-20T13:38:15.592Z,1970
2018-03-20T13:39:16.248Z,1875
2018-03-20T13:40:16.856Z,1420
2018-03-20T13:41:17.474Z,755
2018-03-20T13:42:18.094Z,530
2018-03-20T13:43:18.705Z,460
2018-03-20T13:44:19.311Z,425
2018-03-20T13:45:19.933Z,415
2018-03-20T13:46:20.551Z,395
2018-03-20T13:47:21.226Z,390
2018-03-20T13:48:21.873Z,380
2018-03-20T13:49:22.495Z,375
2018-03-20T13:50:23.152Z,380
2018-03-20T13:51:23.796Z,380
2018-03-20T13:52:24.414Z,380
2018-03-20T13:53:25.039Z,380
2018-03-20T13:54:25.657Z,385
2018-03-20T13:55:26.620Z,385
2018-03-20T13:56:27.147Z,395
2018-03-20T13:57:27.823Z,400
2018-03-20T13:58:28.468Z,415
2018-03-20T13:59:29.133Z,445
2018-03-20T14:00:30.008Z,495
2018-03-20T14:01:30.644Z,650
2018-03-20T14:02:31.277Z,1210
2018-03-20T14:03:31.964Z,1770
2018-03-20T14:04:32.649Z,1885
2018-03-20T14:05:33.325Z,1930
2018-03-20T14:06:34.000Z,1940
2018-03-20T14:07:35.640Z,1935
2018-03-20T14:08:36.282Z,1895
2018-03-20T14:09:36.946Z,1860
2018-03-20T14:10:37.621Z,1830
2018-03-20T14:11:38.245Z,1825
2018-03-20T14:12:38.947Z,1825
2018-03-20T14:13:39.617Z,1825